Time;durP1;ratioP1;P1;durP2;ratioP2;P2;SDS_P1;SDS_P2;PMS_P1;PMS_P2;Temp;Humidity;BMP_temperature;BMP_pressure;BME280_temperature;BME280_humidity;BME280_pressure;Samples;Min_cycle;Max_cycle;Signal;HPM_P1;HPM_P2
2022/01/07 00:01:35;;;;;;;15.85;6.65;;;;;;;;;;4996156;28;93482;-70
2022/01/07 00:04:02;;;;;;;11.57;6.53;;;;;;;;;;4997220;28;92491;-70
2022/01/07 00:06:29;;;;;;;17.25;6.82;;;;;;;;;;5000194;28;92292;-70
2022/01/07 00:08:55;;;;;;;17.10;6.18;;;;;;;;;;4996973;28;93253;-70
2022/01/07 00:11:21;;;;;;;13.43;6.68;;;;;;;;;;4997561;28;91616;-69
2022/01/07 00:13:48;;;;;;;17.95;5.93;;;;;;;;;;4997197;28;92172;-69
2022/01/07 00:16:16;;;;;;;14.93;6.75;;;;;;;;;;4996921;28;93139;-70
2022/01/07 00:18:44;;;;;;;16.83;5.97;;;;;;;;;;4994780;28;95132;-71
2022/01/07 00:21:11;;;;;;;18.38;6.45;;;;;;;;;;4996961;28;95815;-71
2022/01/07 00:23:37;;;;;;;15.18;7.03;;;;;;;;;;4996831;28;92722;-71
2022/01/07 00:26:04;;;;;;;15.05;6.57;;;;;;;;;;4996917;28;93115;-71
2022/01/07 00:28:30;;;;;;;10.95;6.72;;;;;;;;;;5000681;28;92518;-70
2022/01/07 00:30:56;;;;;;;14.38;6.93;;;;;;;;;;5000487;28;92499;-70
2022/01/07 00:33:23;;;;;;;17.20;7.05;;;;;;;;;;4999896;28;93215;-71
2022/01/07 00:35:50;;;;;;;15.65;6.75;;;;;;;;;;5000377;28;92875;-70
2022/01/07 00:38:17;;;;;;;16.58;7.40;;;;;;;;;;5000509;28;92322;-70
2022/01/07 00:40:43;;;;;;;13.45;6.22;;;;;;;;;;5000430;28;93454;-70
2022/01/07 00:43:09;;;;;;;19.73;7.57;;;;;;;;;;4998568;28;96041;-70
2022/01/07 00:45:36;;;;;;;17.65;6.88;;;;;;;;;;5001549;28;92263;-70
2022/01/07 00:48:02;;;;;;;14.18;6.20;;;;;;;;;;5004470;28;92709;-70
2022/01/07 00:50:30;;;;;;;11.05;6.70;;;;;;;;;;5000951;28;92867;-70
2022/01/07 00:52:56;;;;;;;13.25;7.22;;;;;;;;;;5000640;28;93357;-70
2022/01/07 00:55:23;;;;;;;19.17;7.53;;;;;;;;;;5000177;28;93882;-69
2022/01/07 00:57:50;;;;;;;15.15;6.38;;;;;;;;;;5000948;28;92248;-70
2022/01/07 01:00:17;;;;;;;14.00;7.07;;;;;;;;;;5000839;28;93504;-70
2022/01/07 01:02:44;;;;;;;13.93;6.40;;;;;;;;;;4999492;28;93490;-70
2022/01/07 01:05:11;;;;;;;13.52;6.20;;;;;;;;;;4998933;28;92505;-70
2022/01/07 01:07:38;;;;;;;8.40;6.20;;;;;;;;;;4998503;28;94706;-70
2022/01/07 01:10:07;;;;;;;13.35;6.03;;;;;;;;;;5002948;28;93338;-70
2022/01/07 01:12:34;;;;;;;14.20;6.53;;;;;;;;;;4999885;28;93122;-70
2022/01/07 01:15:01;;;;;;;14.95;7.55;;;;;;;;;;4999079;28;93516;-70
2022/01/07 01:17:27;;;;;;;12.95;6.43;;;;;;;;;;4999470;28;92210;-70
2022/01/07 01:19:53;;;;;;;15.48;6.68;;;;;;;;;;4999809;28;93935;-71
2022/01/07 01:22:20;;;;;;;18.75;6.95;;;;;;;;;;4999759;28;93727;-70
2022/01/07 01:24:46;;;;;;;11.32;5.88;;;;;;;;;;5000234;28;91431;-69
2022/01/07 01:27:13;;;;;;;12.98;6.57;;;;;;;;;;4999641;28;92747;-70
2022/01/07 01:29:39;;;;;;;10.23;5.55;;;;;;;;;;4999047;28;93558;-70
2022/01/07 01:32:06;;;;;;;8.75;4.68;;;;;;;;;;5001382;28;94762;-70
2022/01/07 01:34:33;;;;;;;11.38;6.15;;;;;;;;;;4999464;28;93766;-70
2022/01/07 01:36:59;;;;;;;18.05;6.57;;;;;;;;;;4999719;28;92164;-70
2022/01/07 01:39:26;;;;;;;14.88;5.35;;;;;;;;;;4998728;28;93406;-70
2022/01/07 01:41:52;;;;;;;12.95;5.93;;;;;;;;;;4997806;28;94662;-70
2022/01/07 01:44:18;;;;;;;15.98;6.22;;;;;;;;;;5029044;28;93232;-70
2022/01/07 01:46:45;;;;;;;8.35;6.13;;;;;;;;;;5039471;28;92640;-70
2022/01/07 01:49:11;;;;;;;13.23;6.53;;;;;;;;;;5039950;28;91524;-70
2022/01/07 01:51:38;;;;;;;10.32;5.97;;;;;;;;;;5039447;28;92370;-70
2022/01/07 01:54:04;;;;;;;8.45;5.90;;;;;;;;;;5042379;28;93942;-70
2022/01/07 01:56:31;;;;;;;13.07;6.25;;;;;;;;;;5037638;28;94759;-70
2022/01/07 01:58:58;;;;;;;21.42;6.88;;;;;;;;;;5038963;28;96457;-70
2022/01/07 02:01:24;;;;;;;17.00;6.78;;;;;;;;;;5037628;28;96352;-70
2022/01/07 02:03:51;;;;;;;11.27;6.72;;;;;;;;;;5037848;28;92425;-71
2022/01/07 02:06:17;;;;;;;14.90;6.93;;;;;;;;;;5039210;28;93648;-70
2022/01/07 02:08:44;;;;;;;14.55;6.78;;;;;;;;;;5037724;28;94943;-70
2022/01/07 02:11:10;;;;;;;18.60;8.48;;;;;;;;;;5039215;28;92206;-70
2022/01/07 02:13:36;;;;;;;16.10;7.80;;;;;;;;;;5037944;28;93173;-70
2022/01/07 02:16:03;;;;;;;16.63;7.70;;;;;;;;;;5041911;28;93235;-71
2022/01/07 02:18:29;;;;;;;16.88;7.57;;;;;;;;;;5038823;27;92609;-71
2022/01/07 02:20:56;;;;;;;16.10;8.23;;;;;;;;;;5037006;28;96602;-71
2022/01/07 02:23:23;;;;;;;18.40;7.88;;;;;;;;;;5038808;28;92437;-71
2022/01/07 02:25:50;;;;;;;17.45;8.13;;;;;;;;;;5038462;28;93696;-71
2022/01/07 02:28:16;;;;;;;17.92;8.25;;;;;;;;;;5038760;28;92770;-71
2022/01/07 02:30:42;;;;;;;18.15;7.60;;;;;;;;;;5038963;28;92918;-70
2022/01/07 02:33:09;;;;;;;13.80;7.90;;;;;;;;;;5038843;28;93879;-71
2022/01/07 02:35:35;;;;;;;13.82;7.43;;;;;;;;;;5038482;28;93840;-71
2022/01/07 02:38:02;;;;;;;14.63;7.18;;;;;;;;;;5042096;28;91657;-71
2022/01/07 02:40:29;;;;;;;17.45;7.85;;;;;;;;;;5038001;28;93632;-71
2022/01/07 02:42:56;;;;;;;12.40;7.05;;;;;;;;;;5038505;28;92330;-70
2022/01/07 02:45:22;;;;;;;13.85;7.25;;;;;;;;;;5037092;28;95700;-71
2022/01/07 02:47:50;;;;;;;12.70;7.70;;;;;;;;;;5038663;28;93526;-70
2022/01/07 02:50:18;;;;;;;15.68;7.13;;;;;;;;;;5038423;28;92283;-71
2022/01/07 02:52:44;;;;;;;14.90;7.10;;;;;;;;;;5037622;28;93787;-71
2022/01/07 02:55:11;;;;;;;14.57;7.03;;;;;;;;;;5036978;28;93704;-70
2022/01/07 02:57:37;;;;;;;12.85;6.85;;;;;;;;;;5041196;28;92329;-71
2022/01/07 03:00:05;;;;;;;17.95;7.57;;;;;;;;;;5038058;28;93933;-70
2022/01/07 03:02:31;;;;;;;10.73;6.85;;;;;;;;;;5038914;27;91536;-71
2022/01/07 03:04:58;;;;;;;15.07;7.32;;;;;;;;;;5038362;27;92670;-70
2022/01/07 03:07:24;;;;;;;14.82;7.22;;;;;;;;;;5037189;28;93861;-70
2022/01/07 03:09:51;;;;;;;13.35;6.55;;;;;;;;;;5036217;28;95420;-71
2022/01/07 03:12:17;;;;;;;10.88;6.75;;;;;;;;;;5038014;28;95832;-70
2022/01/07 03:14:44;;;;;;;11.50;6.53;;;;;;;;;;5037777;28;93623;-70
2022/01/07 03:17:10;;;;;;;14.23;6.97;;;;;;;;;;5037742;28;92308;-71
2022/01/07 03:19:36;;;;;;;19.58;7.20;;;;;;;;;;5040941;28;93320;-70
2022/01/07 03:22:03;;;;;;;16.52;7.07;;;;;;;;;;5001859;28;93076;-70
2022/01/07 03:24:30;;;;;;;14.13;7.45;;;;;;;;;;5037774;28;92337;-70
2022/01/07 03:26:56;;;;;;;12.07;7.30;;;;;;;;;;5036799;28;95824;-70
2022/01/07 03:29:22;;;;;;;17.17;7.47;;;;;;;;;;5038054;28;92349;-70
2022/01/07 03:31:48;;;;;;;11.27;6.95;;;;;;;;;;5038034;28;92952;-71
2022/01/07 03:34:15;;;;;;;12.10;7.35;;;;;;;;;;5035960;28;95732;-71
2022/01/07 03:36:41;;;;;;;13.65;7.47;;;;;;;;;;5037604;28;92148;-70
2022/01/07 03:39:08;;;;;;;13.43;8.02;;;;;;;;;;5037402;28;94058;-70
2022/01/07 03:41:34;;;;;;;14.75;7.85;;;;;;;;;;5040606;28;93698;-70
2022/01/07 03:44:01;;;;;;;13.38;7.85;;;;;;;;;;5037479;28;93909;-70
2022/01/07 03:46:27;;;;;;;10.60;8.32;;;;;;;;;;5037383;27;94097;-70
2022/01/07 03:48:53;;;;;;;15.65;8.68;;;;;;;;;;5037704;28;92189;-70
2022/01/07 03:51:20;;;;;;;16.92;8.02;;;;;;;;;;5037934;28;93326;-72
2022/01/07 03:53:46;;;;;;;9.07;8.15;;;;;;;;;;5037121;28;93761;-70
2022/01/07 03:56:17;;;;;;;5.20;4.72;;;;;;;;;;5037459;28;92346;-70
2022/01/07 03:58:44;;;;;;;9.18;7.53;;;;;;;;;;5035328;28;94691;-70
2022/01/07 04:01:11;;;;;;;9.00;7.72;;;;;;;;;;5037141;28;93636;-70
2022/01/07 04:03:38;;;;;;;8.63;7.47;;;;;;;;;;5040280;27;93345;-70
2022/01/07 04:06:04;;;;;;;8.40;7.30;;;;;;;;;;5037154;28;92381;-71
2022/01/07 04:08:30;;;;;;;9.25;7.65;;;;;;;;;;5037398;28;93271;-70
2022/01/07 04:10:57;;;;;;;8.57;7.28;;;;;;;;;;5037113;28;93366;-70
2022/01/07 04:13:23;;;;;;;10.85;7.65;;;;;;;;;;5037308;28;93371;-71
2022/01/07 04:15:50;;;;;;;9.27;8.02;;;;;;;;;;5037592;28;93557;-70
2022/01/07 04:18:16;;;;;;;9.20;7.80;;;;;;;;;;5037048;27;92456;-71
2022/01/07 04:20:43;;;;;;;9.82;8.10;;;;;;;;;;5036380;28;93558;-71
2022/01/07 04:23:10;;;;;;;9.90;8.20;;;;;;;;;;5035501;28;95241;-70
2022/01/07 04:25:40;;;;;;;10.60;8.40;;;;;;;;;;5040075;27;95723;-70
2022/01/07 04:28:07;;;;;;;8.82;7.93;;;;;;;;;;5036983;28;92293;-70
2022/01/07 04:30:35;;;;;;;10.55;9.18;;;;;;;;;;5037002;28;93408;-70
2022/01/07 04:33:02;;;;;;;11.15;8.57;;;;;;;;;;5036796;28;94012;-71
2022/01/07 04:35:30;;;;;;;11.68;9.32;;;;;;;;;;5036517;28;92382;-71
2022/01/07 04:37:56;;;;;;;11.55;8.95;;;;;;;;;;5036890;27;93309;-70
2022/01/07 04:40:23;;;;;;;11.07;9.52;;;;;;;;;;5037216;28;92751;-71
2022/01/07 04:42:50;;;;;;;10.13;9.07;;;;;;;;;;5036801;28;92390;-71
2022/01/07 04:45:16;;;;;;;14.18;10.27;;;;;;;;;;5039532;28;93547;-71
2022/01/07 04:47:43;;;;;;;12.27;10.35;;;;;;;;;;5034302;28;94747;-71
2022/01/07 04:50:11;;;;;;;11.48;10.27;;;;;;;;;;5035788;28;95791;-71
2022/01/07 04:52:44;;;;;;;14.77;11.00;;;;;;;;;;5035819;28;93135;-71
2022/01/07 04:55:14;;;;;;;11.25;9.45;;;;;;;;;;5035962;28;92524;-70
2022/01/07 04:57:41;;;;;;;12.30;11.00;;;;;;;;;;5035916;28;93443;-70
2022/01/07 05:00:08;;;;;;;13.00;11.63;;;;;;;;;;5017974;28;94440;-70
2022/01/07 05:02:34;;;;;;;14.45;11.38;;;;;;;;;;5036203;28;92327;-70
2022/01/07 05:05:01;;;;;;;15.55;11.85;;;;;;;;;;5038622;28;93435;-71
2022/01/07 05:07:27;;;;;;;14.20;11.68;;;;;;;;;;5040785;28;93748;-71
2022/01/07 05:09:54;;;;;;;13.70;12.23;;;;;;;;;;5037689;28;93459;-71
2022/01/07 05:12:20;;;;;;;13.90;12.38;;;;;;;;;;5035528;28;96407;-71
2022/01/07 05:14:47;;;;;;;17.08;12.93;;;;;;;;;;5036751;27;92226;-70
2022/01/07 05:17:13;;;;;;;19.52;13.93;;;;;;;;;;5038961;28;93423;-71
2022/01/07 05:19:39;;;;;;;16.88;14.25;;;;;;;;;;5037929;28;95110;-71
2022/01/07 05:22:06;;;;;;;18.88;14.10;;;;;;;;;;5039120;28;92299;-71
2022/01/07 05:24:33;;;;;;;19.63;14.43;;;;;;;;;;5038636;28;93246;-71
2022/01/07 05:26:59;;;;;;;22.45;15.27;;;;;;;;;;5038996;28;93691;-71
2022/01/07 05:29:26;;;;;;;19.67;14.40;;;;;;;;;;5042568;28;91621;-71
2022/01/07 05:31:52;;;;;;;20.05;16.10;;;;;;;;;;5038886;28;93771;-71
2022/01/07 05:34:18;;;;;;;21.35;14.70;;;;;;;;;;5039023;28;92297;-71
2022/01/07 05:36:45;;;;;;;22.55;16.23;;;;;;;;;;5035708;28;94815;-70
2022/01/07 05:39:11;;;;;;;23.58;15.85;;;;;;;;;;5038765;28;93217;-71
2022/01/07 05:41:38;;;;;;;28.20;16.35;;;;;;;;;;5037692;28;92514;-71
2022/01/07 05:44:05;;;;;;;23.55;17.70;;;;;;;;;;5037512;28;96384;-71
2022/01/07 05:46:31;;;;;;;26.75;17.90;;;;;;;;;;5038655;28;93532;-71
2022/01/07 05:48:58;;;;;;;27.85;18.83;;;;;;;;;;5038811;28;92323;-71
2022/01/07 05:51:24;;;;;;;28.10;18.85;;;;;;;;;;5041510;28;92940;-71
2022/01/07 05:53:50;;;;;;;24.63;16.95;;;;;;;;;;5039029;28;91543;-71
2022/01/07 05:56:17;;;;;;;28.50;20.02;;;;;;;;;;5038598;28;93398;-71
2022/01/07 05:58:43;;;;;;;30.05;19.52;;;;;;;;;;5038284;28;93216;-72
2022/01/07 06:01:11;;;;;;;25.23;18.75;;;;;;;;;;5036856;28;94671;-71
2022/01/07 06:03:39;;;;;;;25.15;19.85;;;;;;;;;;5038053;28;95722;-72
2022/01/07 06:06:05;;;;;;;28.27;19.33;;;;;;;;;;5038428;28;93991;-71
2022/01/07 06:08:32;;;;;;;30.92;21.25;;;;;;;;;;5038487;28;92271;-71
2022/01/07 06:10:58;;;;;;;29.05;20.83;;;;;;;;;;5038441;28;93414;-71
2022/01/07 06:13:24;;;;;;;29.15;21.33;;;;;;;;;;5041339;28;93425;-70
2022/01/07 06:15:51;;;;;;;28.92;20.35;;;;;;;;;;5038186;28;93338;-71
2022/01/07 06:18:17;;;;;;;31.27;21.13;;;;;;;;;;5038235;28;92296;-71
2022/01/07 06:20:43;;;;;;;32.25;21.90;;;;;;;;;;5038240;28;92218;-71
2022/01/07 06:23:10;;;;;;;31.00;21.40;;;;;;;;;;5038180;28;92175;-71
2022/01/07 06:25:36;;;;;;;31.55;22.67;;;;;;;;;;5036161;28;95899;-71
2022/01/07 06:28:03;;;;;;;30.73;20.73;;;;;;;;;;5038034;28;92199;-71
2022/01/07 06:30:29;;;;;;;35.17;22.73;;;;;;;;;;5037964;28;93637;-71
2022/01/07 06:32:55;;;;;;;29.88;22.45;;;;;;;;;;5037550;28;93685;-70
2022/01/07 06:35:22;;;;;;;41.47;23.35;;;;;;;;;;5040909;28;92329;-71
2022/01/07 06:37:48;;;;;;;39.50;24.83;;;;;;;;;;5037966;28;93613;-70
2022/01/07 06:40:15;;;;;;;33.97;24.25;;;;;;;;;;5037792;28;92362;-70
2022/01/07 06:42:41;;;;;;;38.83;24.85;;;;;;;;;;5038390;28;93473;-70
2022/01/07 06:45:08;;;;;;;38.65;25.90;;;;;;;;;;5037681;28;93665;-70
2022/01/07 06:47:34;;;;;;;39.25;25.52;;;;;;;;;;5037785;28;92167;-70
2022/01/07 06:50:01;;;;;;;38.45;26.58;;;;;;;;;;5036342;28;94949;-69
2022/01/07 06:52:28;;;;;;;33.97;26.20;;;;;;;;;;5037576;28;94363;-72
2022/01/07 06:54:55;;;;;;;36.42;25.38;;;;;;;;;;5040576;28;92276;-72
2022/01/07 06:57:22;;;;;;;42.25;26.63;;;;;;;;;;5037332;28;93602;-71
2022/01/07 06:59:48;;;;;;;45.65;25.02;;;;;;;;;;5037531;28;92400;-71
2022/01/07 07:02:14;;;;;;;40.17;26.88;;;;;;;;;;5037000;28;93528;-71
2022/01/07 07:04:41;;;;;;;39.97;26.13;;;;;;;;;;5037256;27;93653;-70
2022/01/07 07:07:07;;;;;;;42.45;26.42;;;;;;;;;;5037719;28;91544;-72
2022/01/07 07:09:34;;;;;;;45.92;27.98;;;;;;;;;;5037457;28;92535;-71
2022/01/07 07:12:00;;;;;;;44.58;30.40;;;;;;;;;;5037195;28;93610;-72
2022/01/07 07:14:27;;;;;;;44.72;27.85;;;;;;;;;;5035635;28;94662;-71
2022/01/07 07:16:53;;;;;;;37.60;29.00;;;;;;;;;;5039354;28;95228;-71
2022/01/07 07:19:21;;;;;;;39.85;28.15;;;;;;;;;;5037370;28;92210;-72
2022/01/07 07:21:48;;;;;;;49.88;28.52;;;;;;;;;;5037335;28;93133;-71
2022/01/07 07:24:15;;;;;;;45.75;29.27;;;;;;;;;;5037056;28;93627;-71
2022/01/07 07:26:43;;;;;;;52.33;29.65;;;;;;;;;;5036956;27;92286;-72
2022/01/07 07:29:09;;;;;;;45.53;27.13;;;;;;;;;;5035574;28;94973;-72
2022/01/07 07:31:41;;;;;;;43.08;27.70;;;;;;;;;;5037267;28;92970;-71
2022/01/07 07:34:43;;;;;;;45.75;27.15;;;;;;;;;;5035934;28;92411;-71
2022/01/07 07:37:13;;;;;;;51.78;28.10;;;;;;;;;;5036175;27;93869;-72
2022/01/07 07:39:40;;;;;;;41.10;27.20;;;;;;;;;;5037581;28;96149;-72
2022/01/07 07:42:07;;;;;;;44.35;27.15;;;;;;;;;;5036600;28;95751;-71
2022/01/07 07:44:36;;;;;;;42.65;24.88;;;;;;;;;;5018978;28;95776;-72
2022/01/07 07:47:03;;;;;;;44.13;27.30;;;;;;;;;;5035472;28;92456;-72
2022/01/07 07:49:29;;;;;;;34.17;26.90;;;;;;;;;;5035347;28;95705;-72
2022/01/07 07:51:55;;;;;;;40.55;26.60;;;;;;;;;;5036538;28;93640;-71
2022/01/07 07:54:22;;;;;;;36.83;26.98;;;;;;;;;;5036291;28;92355;-71
2022/01/07 07:56:48;;;;;;;43.70;27.27;;;;;;;;;;5036874;28;93428;-72
2022/01/07 07:59:15;;;;;;;38.97;24.27;;;;;;;;;;5036350;28;92842;-71
2022/01/07 08:01:41;;;;;;;36.92;25.30;;;;;;;;;;5039686;28;93037;-72
2022/01/07 08:04:10;;;;;;;37.70;27.38;;;;;;;;;;5034622;28;95929;-71
2022/01/07 08:06:36;;;;;;;41.40;26.08;;;;;;;;;;5036245;28;92253;-71
2022/01/07 08:09:03;;;;;;;36.08;25.13;;;;;;;;;;5036394;28;92833;-72
2022/01/07 08:11:33;;;;;;;38.95;25.30;;;;;;;;;;5036299;28;93017;-70
2022/01/07 08:16:45;;;;;;;36.35;25.83;;;;;;;;;;5035986;28;93360;-72
2022/01/07 08:19:12;;;;;;;32.78;23.33;;;;;;;;;;5034987;28;93626;-71
2022/01/07 08:21:39;;;;;;;44.95;24.10;;;;;;;;;;5036416;28;91644;-72
2022/01/07 08:24:05;;;;;;;38.60;24.15;;;;;;;;;;5039135;28;93198;-74
2022/01/07 08:26:32;;;;;;;43.30;22.70;;;;;;;;;;5035993;28;92380;-73
2022/01/07 08:28:59;;;;;;;37.50;23.20;;;;;;;;;;5034585;28;95026;-70
2022/01/07 08:36:45;;;;;;;34.40;23.27;;;;;;;;;;5036110;28;92525;-71
2022/01/07 08:39:12;;;;;;;34.67;22.63;;;;;;;;;;5035072;28;93801;-71
2022/01/07 08:41:39;;;;;;;33.08;21.88;;;;;;;;;;5035886;28;92276;-73
2022/01/07 08:44:06;;;;;;;30.88;22.08;;;;;;;;;;5036002;28;93600;-72
2022/01/07 08:46:32;;;;;;;38.28;23.02;;;;;;;;;;5038961;28;91998;-72
2022/01/07 08:48:59;;;;;;;38.08;22.20;;;;;;;;;;5036004;27;92758;-72
2022/01/07 08:51:28;;;;;;;33.72;22.77;;;;;;;;;;5039021;28;94297;-72
2022/01/07 08:53:55;;;;;;;32.95;21.67;;;;;;;;;;5038050;28;94703;-72
2022/01/07 08:56:24;;;;;;;37.17;21.50;;;;;;;;;;5038219;28;97206;-72
2022/01/07 08:58:51;;;;;;;28.88;20.65;;;;;;;;;;5038800;28;93717;-73
2022/01/07 09:01:18;;;;;;;30.05;20.13;;;;;;;;;;5039224;28;92332;-72
2022/01/07 09:03:45;;;;;;;29.88;17.92;;;;;;;;;;5039396;27;93497;-72
2022/01/07 09:06:11;;;;;;;30.77;18.27;;;;;;;;;;5042363;28;93522;-72
2022/01/07 09:08:37;;;;;;;28.20;17.45;;;;;;;;;;5038970;28;94295;-72
2022/01/07 09:11:04;;;;;;;29.50;18.35;;;;;;;;;;5039740;28;93185;-71
2022/01/07 09:13:30;;;;;;;27.13;17.25;;;;;;;;;;5026277;28;92427;-72
2022/01/07 09:16:07;;;;;;;28.25;21.05;;;;;;;;;;4999243;28;92797;-73
2022/01/07 09:18:33;;;;;;;37.75;23.73;;;;;;;;;;4996857;28;95474;-73
2022/01/07 09:21:00;;;;;;;31.58;23.27;;;;;;;;;;4999891;28;92319;-73
2022/01/07 09:23:26;;;;;;;39.75;23.17;;;;;;;;;;5005860;28;93815;-73
2022/01/07 09:25:53;;;;;;;34.80;20.73;;;;;;;;;;5003739;28;94013;-72
2022/01/07 09:28:19;;;;;;;27.08;18.98;;;;;;;;;;5005230;28;92258;-72
2022/01/07 09:30:46;;;;;;;30.63;19.23;;;;;;;;;;4999328;28;93049;-72
2022/01/07 09:33:12;;;;;;;30.83;18.88;;;;;;;;;;4999879;28;92529;-72
2022/01/07 09:35:38;;;;;;;32.88;18.75;;;;;;;;;;4999721;28;92896;-73
2022/01/07 09:38:05;;;;;;;27.63;18.20;;;;;;;;;;4999067;28;93029;-72
2022/01/07 09:40:31;;;;;;;26.63;18.15;;;;;;;;;;4999151;28;92330;-73
2022/01/07 09:43:05;;;;;;;23.55;15.45;;;;;;;;;;4996819;28;94769;-72
2022/01/07 09:45:32;;;;;;;26.95;13.70;;;;;;;;;;4998145;28;93585;-72
2022/01/07 09:48:01;;;;;;;21.50;14.80;;;;;;;;;;4998902;28;92283;-73
2022/01/07 09:50:28;;;;;;;21.02;14.05;;;;;;;;;;5001805;28;93417;-73
2022/01/07 09:52:54;;;;;;;26.80;14.82;;;;;;;;;;4998586;28;92294;-73
2022/01/07 09:55:20;;;;;;;23.67;13.68;;;;;;;;;;4996984;28;93419;-72
2022/01/07 09:57:47;;;;;;;19.33;13.98;;;;;;;;;;4997057;28;96178;-71
2022/01/07 10:00:13;;;;;;;22.48;14.65;;;;;;;;;;4998526;28;91516;-71
2022/01/07 10:02:57;;;;;;;22.73;14.82;;;;;;;;;;4998203;28;92788;-71
2022/01/07 10:05:24;;;;;;;21.40;13.90;;;;;;;;;;4998121;28;93581;-71
2022/01/07 10:08:16;;;;;;;21.02;13.30;;;;;;;;;;4996457;28;95845;-70
2022/01/07 10:10:42;;;;;;;18.08;13.60;;;;;;;;;;4998298;28;95293;-71
2022/01/07 10:13:09;;;;;;;26.15;14.27;;;;;;;;;;5001265;28;94258;-70
2022/01/07 10:15:36;;;;;;;23.98;13.57;;;;;;;;;;4997998;28;93434;-73
2022/01/07 10:18:03;;;;;;;19.15;13.00;;;;;;;;;;4996761;28;93572;-73
2022/01/07 10:20:34;;;;;;;22.27;13.63;;;;;;;;;;4997742;28;93486;-74
2022/01/07 10:23:02;;;;;;;18.20;12.77;;;;;;;;;;4997959;28;93513;-75
2022/01/07 10:25:30;;;;;;;20.55;13.05;;;;;;;;;;4998491;28;92605;-73
2022/01/07 10:27:58;;;;;;;26.52;12.88;;;;;;;;;;4997674;28;92297;-74
2022/01/07 10:30:27;;;;;;;21.55;13.55;;;;;;;;;;4998057;28;93591;-75
2022/01/07 10:32:55;;;;;;;20.85;13.10;;;;;;;;;;4995812;28;96201;-73
2022/01/07 10:35:23;;;;;;;19.85;12.80;;;;;;;;;;5001085;28;92306;-76
2022/01/07 10:38:02;;;;;;;26.00;13.40;;;;;;;;;;4997776;28;93983;-74
2022/01/07 10:40:29;;;;;;;27.23;13.20;;;;;;;;;;4997739;28;92261;-73
2022/01/07 10:43:07;;;;;;;25.92;14.35;;;;;;;;;;4997666;28;93431;-75
2022/01/07 10:45:35;;;;;;;19.30;13.93;;;;;;;;;;4997261;28;94133;-74
2022/01/07 10:48:02;;;;;;;20.35;13.10;;;;;;;;;;4997664;28;92174;-74
2022/01/07 10:50:28;;;;;;;23.60;13.63;;;;;;;;;;4997721;28;93446;-74
2022/01/07 10:53:13;;;;;;;24.38;12.18;;;;;;;;;;4997689;28;93973;-74
2022/01/07 10:55:55;;;;;;;23.30;12.10;;;;;;;;;;4997261;28;92279;-75
2022/01/07 10:58:22;;;;;;;18.40;9.32;;;;;;;;;;4997820;28;96058;-73
2022/01/07 11:00:48;;;;;;;19.27;9.55;;;;;;;;;;4998180;28;92357;-75
2022/01/07 11:03:14;;;;;;;20.73;9.50;;;;;;;;;;4998163;28;92329;-73
2022/01/07 11:05:42;;;;;;;15.77;8.27;;;;;;;;;;4975298;28;93172;-75
2022/01/07 11:08:08;;;;;;;15.15;8.45;;;;;;;;;;4975858;28;92637;-75
2022/01/07 11:10:36;;;;;;;21.73;8.52;;;;;;;;;;4976188;28;93449;-75
2022/01/07 11:13:03;;;;;;;14.68;7.95;;;;;;;;;;4975471;28;94038;-74
2022/01/07 11:15:29;;;;;;;13.52;7.93;;;;;;;;;;4976850;28;91980;-74
2022/01/07 11:17:55;;;;;;;16.80;8.20;;;;;;;;;;4979251;28;92523;-71
2022/01/07 11:20:24;;;;;;;14.40;8.45;;;;;;;;;;4976137;28;92364;-71
2022/01/07 11:22:51;;;;;;;13.77;9.02;;;;;;;;;;4974458;28;94839;-72
2022/01/07 11:25:17;;;;;;;11.55;5.45;;;;;;;;;;4976156;28;93290;-72
2022/01/07 11:27:51;;;;;;;15.52;7.47;;;;;;;;;;4976256;28;92292;-73
2022/01/07 11:30:24;;;;;;;18.30;7.63;;;;;;;;;;4976132;28;92771;-74
2022/01/07 11:32:52;;;;;;;12.68;7.20;;;;;;;;;;4975842;28;93734;-77
2022/01/07 11:35:19;;;;;;;13.00;6.75;;;;;;;;;;4975578;28;92419;-73
2022/01/07 11:37:58;;;;;;;18.98;6.90;;;;;;;;;;4995418;28;92867;-72
2022/01/07 11:40:28;;;;;;;14.25;5.85;;;;;;;;;;5001277;28;92913;-72
2022/01/07 11:42:55;;;;;;;15.00;5.50;;;;;;;;;;4997623;28;92577;-73
2022/01/07 11:45:30;;;;;;;12.98;6.15;;;;;;;;;;4997556;28;93691;-71
2022/01/07 11:48:27;;;;;;;13.48;6.40;;;;;;;;;;4994766;28;94791;-72
2022/01/07 11:50:58;;;;;;;8.10;4.50;;;;;;;;;;4992618;28;95916;-74
2022/01/07 11:53:25;;;;;;;17.38;5.07;;;;;;;;;;4996422;28;93689;-72
2022/01/07 11:55:57;;;;;;;9.02;3.95;;;;;;;;;;4997470;28;92361;-73
2022/01/07 11:58:37;;;;;;;15.57;5.22;;;;;;;;;;4997057;28;93433;-72
2022/01/07 12:01:04;;;;;;;11.55;3.83;;;;;;;;;;4997174;28;92637;-72
2022/01/07 12:03:37;;;;;;;16.13;4.38;;;;;;;;;;5000269;28;92305;-73
2022/01/07 12:06:26;;;;;;;14.30;3.95;;;;;;;;;;4996003;28;92967;-72
2022/01/07 12:08:58;;;;;;;9.95;2.95;;;;;;;;;;4996956;28;93188;-74
2022/01/07 12:11:26;;;;;;;4.57;2.38;;;;;;;;;;4997515;28;92589;-74
2022/01/07 12:13:53;;;;;;;13.48;2.95;;;;;;;;;;4995283;28;95758;-72
2022/01/07 12:16:20;;;;;;;12.02;3.38;;;;;;;;;;4997065;28;92556;-72
2022/01/07 12:18:46;;;;;;;14.10;3.38;;;;;;;;;;4996900;28;93320;-72
2022/01/07 12:21:13;;;;;;;7.90;2.72;;;;;;;;;;4995080;28;93744;-73
2022/01/07 12:23:41;;;;;;;10.35;3.75;;;;;;;;;;4981130;28;92371;-72
2022/01/07 12:26:08;;;;;;;7.95;2.97;;;;;;;;;;5006483;28;93732;-72
2022/01/07 12:28:35;;;;;;;10.60;2.95;;;;;;;;;;5003261;28;92437;-72
2022/01/07 12:31:05;;;;;;;11.15;2.85;;;;;;;;;;5004042;28;93457;-71
2022/01/07 12:33:32;;;;;;;11.57;2.53;;;;;;;;;;5003328;28;93277;-70
2022/01/07 12:35:58;;;;;;;419.50;304.30;;;;;;;;;;5002972;28;92295;-71
2022/01/07 12:38:24;;;;;;;13.57;2.70;;;;;;;;;;5000182;28;94806;-69
2022/01/07 12:40:52;;;;;;;10.63;2.13;;;;;;;;;;5003192;28;93691;-72
2022/01/07 12:43:22;;;;;;;11.63;2.63;;;;;;;;;;5003419;28;92245;-71
2022/01/07 12:45:56;;;;;;;13.70;2.58;;;;;;;;;;5003429;28;92886;-72
2022/01/07 12:48:30;;;;;;;5.90;2.20;;;;;;;;;;5006066;28;93497;-73
2022/01/07 12:50:59;;;;;;;8.80;2.40;;;;;;;;;;5003346;28;92804;-73
2022/01/07 12:53:26;;;;;;;9.82;2.28;;;;;;;;;;5003159;28;93443;-72
2022/01/07 12:55:53;;;;;;;10.75;3.00;;;;;;;;;;5003604;28;91564;-73
2022/01/07 12:58:30;;;;;;;16.52;3.35;;;;;;;;;;5003197;28;92273;-73
2022/01/07 13:00:56;;;;;;;10.02;2.25;;;;;;;;;;5002722;28;92693;-73
2022/01/07 13:03:27;;;;;;;7.88;1.90;;;;;;;;;;5001420;28;94744;-72
2022/01/07 13:06:03;;;;;;;8.48;1.88;;;;;;;;;;5003068;28;95877;-72
2022/01/07 13:08:34;;;;;;;6.88;1.85;;;;;;;;;;5001868;28;93583;-72
2022/01/07 13:11:00;;;;;;;11.77;1.57;;;;;;;;;;5005844;28;92405;-72
2022/01/07 13:13:40;;;;;;;7.25;1.77;;;;;;;;;;5002781;28;93892;-70
2022/01/07 13:16:09;;;;;;;4.45;1.17;;;;;;;;;;4985564;28;92493;-73
2022/01/07 13:18:37;;;;;;;6.68;1.10;;;;;;;;;;5002760;28;92790;-72
2022/01/07 13:21:17;;;;;;;5.07;1.38;;;;;;;;;;5003311;28;92908;-72
2022/01/07 13:23:54;;;;;;;7.15;1.48;;;;;;;;;;5004453;28;92228;-73
2022/01/07 13:26:47;;;;;;;6.47;2.15;;;;;;;;;;5003433;28;93299;-72
2022/01/07 13:29:20;;;;;;;10.00;3.45;;;;;;;;;;4999895;28;96371;-72
2022/01/07 13:31:48;;;;;;;9.25;1.88;;;;;;;;;;5007520;28;92340;-70
2022/01/07 13:34:21;;;;;;;4.65;1.90;;;;;;;;;;5006134;28;93565;-73
2022/01/07 13:36:48;;;;;;;3.53;1.50;;;;;;;;;;5000160;28;92056;-72
2022/01/07 13:39:15;;;;;;;8.55;2.83;;;;;;;;;;5000718;28;92378;-71
2022/01/07 13:41:58;;;;;;;5.70;2.13;;;;;;;;;;5000250;28;93202;-72
2022/01/07 13:44:26;;;;;;;6.00;1.90;;;;;;;;;;5001057;28;92516;-72
2022/01/07 13:46:54;;;;;;;5.60;1.38;;;;;;;;;;5000769;28;92799;-74
2022/01/07 13:49:20;;;;;;;2.90;1.45;;;;;;;;;;4999496;28;93401;-74
2022/01/07 13:52:05;;;;;;;10.68;2.63;;;;;;;;;;4999262;28;92224;-73
2022/01/07 13:54:31;;;;;;;8.93;2.03;;;;;;;;;;5000799;28;94857;-73
2022/01/07 13:56:59;;;;;;;5.55;1.52;;;;;;;;;;4999433;28;93179;-72
2022/01/07 13:59:29;;;;;;;5.75;1.27;;;;;;;;;;4998890;28;93807;-73
2022/01/07 14:02:14;;;;;;;5.63;1.23;;;;;;;;;;4998259;28;93604;-74
2022/01/07 14:04:45;;;;;;;2.22;1.00;;;;;;;;;;4999222;28;92259;-72
2022/01/07 14:07:28;;;;;;;2.15;0.77;;;;;;;;;;4999149;28;93553;-72
2022/01/07 14:10:03;;;;;;;3.60;0.88;;;;;;;;;;5000024;28;93547;-72
2022/01/07 14:12:29;;;;;;;8.77;0.98;;;;;;;;;;5019869;28;91543;-73
2022/01/07 14:15:09;;;;;;;8.40;1.38;;;;;;;;;;5008996;28;92522;-74
2022/01/07 14:18:05;;;;;;;4.60;1.35;;;;;;;;;;5001714;28;92975;-74
2022/01/07 14:20:49;;;;;;;6.30;1.58;;;;;;;;;;4997496;28;94832;-72
2022/01/07 14:23:18;;;;;;;6.63;2.70;;;;;;;;;;4998684;28;93088;-72
2022/01/07 14:25:45;;;;;;;8.23;1.42;;;;;;;;;;4998812;28;92236;-73
2022/01/07 14:28:13;;;;;;;6.10;1.20;;;;;;;;;;4999015;28;93397;-72
2022/01/07 14:30:41;;;;;;;7.25;1.40;;;;;;;;;;4998099;28;92947;-72
2022/01/07 14:33:07;;;;;;;7.70;0.90;;;;;;;;;;4998667;28;92225;-72
2022/01/07 14:35:33;;;;;;;4.07;1.10;;;;;;;;;;4998946;28;93599;-72
2022/01/07 14:38:00;;;;;;;9.27;1.27;;;;;;;;;;4999023;28;92959;-72
2022/01/07 14:40:26;;;;;;;6.25;0.90;;;;;;;;;;5001547;28;92268;-71